createdAt,value
2023-02-27T00:01:10.509Z,1.83
2023-02-27T00:03:43.044Z,1.81
2023-02-27T00:06:15.013Z,1.80
2023-02-27T00:08:47.115Z,1.76
2023-02-27T00:11:22.153Z,1.75
2023-02-27T00:13:54.226Z,1.73
2023-02-27T00:16:26.656Z,1.72
2023-02-27T00:19:01.398Z,1.73
2023-02-27T00:21:35.849Z,1.70
2023-02-27T00:24:09.808Z,1.72
2023-02-27T00:26:45.064Z,1.74
2023-02-27T00:29:17.793Z,1.74
2023-02-27T00:31:50.003Z,1.73
2023-02-27T00:34:22.159Z,1.71
2023-02-27T00:36:54.137Z,1.74
2023-02-27T00:39:26.113Z,1.72
2023-02-27T00:41:58.101Z,1.74
2023-02-27T00:44:30.078Z,1.74
2023-02-27T00:47:02.119Z,1.75
2023-02-27T00:49:34.201Z,1.72
2023-02-27T00:52:06.285Z,1.69
2023-02-27T00:54:38.407Z,1.68
2023-02-27T00:57:10.393Z,1.69
2023-02-27T00:59:43.867Z,1.67
2023-02-27T01:02:16.037Z,1.68
2023-02-27T01:04:48.335Z,1.72
2023-02-27T01:07:20.549Z,1.71
2023-02-27T01:09:52.563Z,1.72
2023-02-27T01:12:24.786Z,1.71
2023-02-27T01:14:56.762Z,1.71
2023-02-27T01:17:28.799Z,1.70
2023-02-27T01:20:00.802Z,1.68
2023-02-27T01:22:33.481Z,1.62
2023-02-27T01:25:06.150Z,1.59
2023-02-27T01:27:38.226Z,1.57
2023-02-27T01:30:12.890Z,1.54
2023-02-27T01:32:44.916Z,1.54
2023-02-27T01:35:18.000Z,1.52
2023-02-27T01:37:50.074Z,1.50
2023-02-27T01:40:22.210Z,1.49
2023-02-27T01:42:54.299Z,1.50
2023-02-27T01:45:33.619Z,1.49
2023-02-27T01:48:15.168Z,1.49
2023-02-27T01:50:56.920Z,1.50
2023-02-27T01:53:33.634Z,1.50
2023-02-27T01:56:24.794Z,1.51
2023-02-27T01:59:05.437Z,1.49
2023-02-27T02:01:37.820Z,1.49
2023-02-27T02:04:37.204Z,1.46
2023-02-27T02:07:17.205Z,1.44
2023-02-27T02:09:54.173Z,1.40
2023-02-27T02:12:31.348Z,1.41
2023-02-27T02:15:06.276Z,1.40
2023-02-27T02:18:02.014Z,1.38
2023-02-27T02:21:08.314Z,1.35
2023-02-27T02:24:18.344Z,1.33
2023-02-27T02:27:19.174Z,1.30
2023-02-27T02:30:25.579Z,1.28
2023-02-27T02:33:22.168Z,1.27
2023-02-27T02:36:34.966Z,1.25
2023-02-27T02:39:50.188Z,1.24
2023-02-27T02:42:38.662Z,1.22
2023-02-27T02:45:52.999Z,1.20
2023-02-27T02:49:23.121Z,1.17
2023-02-27T02:52:16.173Z,1.17
2023-02-27T02:55:22.619Z,1.15
2023-02-27T02:58:08.637Z,1.15
2023-02-27T03:00:50.618Z,1.14
2023-02-27T03:03:37.417Z,1.14
2023-02-27T03:06:35.227Z,1.15
2023-02-27T03:09:37.871Z,1.15
2023-02-27T03:12:14.695Z,1.14
2023-02-27T03:15:00.869Z,1.16
2023-02-27T03:17:38.716Z,1.14
2023-02-27T03:20:29.717Z,1.14
2023-02-27T03:23:10.342Z,1.11
2023-02-27T03:25:46.422Z,1.10
2023-02-27T03:28:24.556Z,1.08
2023-02-27T03:31:10.146Z,1.08
2023-02-27T03:34:17.784Z,1.06
2023-02-27T03:37:23.878Z,1.04
2023-02-27T03:40:06.546Z,1.05
2023-02-27T03:43:02.555Z,1.04
2023-02-27T03:45:40.115Z,1.03
2023-02-27T03:48:12.411Z,1.03
2023-02-27T03:50:44.499Z,1.02
2023-02-27T03:53:43.994Z,1.06
2023-02-27T03:56:21.039Z,1.03
2023-02-27T03:58:54.300Z,1.04
2023-02-27T04:01:26.946Z,1.04
2023-02-27T04:04:07.723Z,1.05
2023-02-27T04:07:03.793Z,1.06
2023-02-27T04:09:44.525Z,1.04
2023-02-27T04:12:50.039Z,1.06
2023-02-27T04:16:00.872Z,1.06
2023-02-27T04:19:00.943Z,1.04
2023-02-27T04:22:04.944Z,1.04
2023-02-27T04:24:50.182Z,1.05
2023-02-27T04:27:45.273Z,1.08
2023-02-27T04:30:28.753Z,1.11
2023-02-27T04:33:30.620Z,1.17
2023-02-27T04:36:16.567Z,1.20
2023-02-27T04:39:19.136Z,1.23
2023-02-27T04:42:03.559Z,1.19
2023-02-27T04:44:39.262Z,1.20
2023-02-27T04:47:14.549Z,1.19
2023-02-27T04:49:55.782Z,1.20
2023-02-27T04:52:43.967Z,1.20
2023-02-27T04:55:27.333Z,1.21
2023-02-27T04:58:06.456Z,1.22
2023-02-27T05:00:42.088Z,1.19
2023-02-27T05:03:25.357Z,1.23
2023-02-27T05:06:01.029Z,1.19
2023-02-27T05:08:51.400Z,1.21
2023-02-27T05:12:21.660Z,1.20
2023-02-27T05:15:07.221Z,1.17
2023-02-27T05:18:04.427Z,1.18
2023-02-27T05:20:54.367Z,1.17
2023-02-27T05:23:56.486Z,1.18
2023-02-27T05:27:30.666Z,1.15
2023-02-27T05:30:25.524Z,1.15
2023-02-27T05:33:13.190Z,1.16
2023-02-27T05:36:05.518Z,1.17
2023-02-27T05:38:44.703Z,1.15
2023-02-27T05:41:53.382Z,1.15
2023-02-27T05:44:34.325Z,1.13
2023-02-27T05:47:13.014Z,1.14
2023-02-27T05:49:53.811Z,1.15
2023-02-27T05:52:28.092Z,1.12
2023-02-27T05:55:17.032Z,1.10
2023-02-27T05:58:06.683Z,1.08
2023-02-27T06:00:52.144Z,1.08
2023-02-27T06:03:25.353Z,1.07
2023-02-27T06:06:00.944Z,1.06
2023-02-27T06:08:33.586Z,1.05
2023-02-27T06:11:08.530Z,1.07
2023-02-27T06:13:42.124Z,1.07
2023-02-27T06:16:15.681Z,0.99
2023-02-27T06:18:47.790Z,0.99
2023-02-27T06:21:19.842Z,1.00
2023-02-27T06:23:53.325Z,1.00
2023-02-27T06:26:25.814Z,1.00
2023-02-27T06:29:02.830Z,1.00
2023-02-27T06:31:34.837Z,1.00
2023-02-27T06:34:08.582Z,1.01
2023-02-27T06:36:40.777Z,1.01
2023-02-27T06:39:13.024Z,1.02
2023-02-27T06:41:45.011Z,1.02
2023-02-27T06:44:19.395Z,1.05
2023-02-27T06:46:51.486Z,1.05
2023-02-27T06:49:23.573Z,1.08
2023-02-27T06:51:56.593Z,1.09
2023-02-27T06:54:28.530Z,1.11
2023-02-27T06:57:05.200Z,1.14
2023-02-27T06:59:37.189Z,1.15
2023-02-27T07:02:17.004Z,1.18
2023-02-27T07:04:49.087Z,1.18
2023-02-27T07:07:35.931Z,1.24
2023-02-27T07:10:14.030Z,1.27
2023-02-27T07:12:46.021Z,1.30
2023-02-27T07:15:18.250Z,1.32
2023-02-27T07:17:50.253Z,1.38
2023-02-27T07:20:22.224Z,1.44
2023-02-27T07:22:54.264Z,1.52
2023-02-27T07:25:27.371Z,1.58
2023-02-27T07:27:59.386Z,1.63
2023-02-27T07:30:31.513Z,1.67
2023-02-27T07:33:03.634Z,1.75
2023-02-27T07:35:35.690Z,1.84
2023-02-27T07:38:07.676Z,1.95
2023-02-27T07:40:43.074Z,2.03
2023-02-27T07:43:15.617Z,2.14
2023-02-27T07:45:47.828Z,2.24
2023-02-27T07:48:21.454Z,2.29
2023-02-27T07:50:53.464Z,2.40
2023-02-27T07:53:26.039Z,2.48
2023-02-27T07:55:58.126Z,2.54
2023-02-27T07:58:30.151Z,2.67
2023-02-27T08:01:02.081Z,2.78
2023-02-27T08:03:34.143Z,2.89
2023-02-27T08:06:06.570Z,3.04
2023-02-27T08:08:39.112Z,3.23
2023-02-27T08:11:11.227Z,3.43
2023-02-27T08:14:00.019Z,3.62
2023-02-27T08:16:33.407Z,3.88
2023-02-27T08:19:05.646Z,4.14
2023-02-27T08:21:37.599Z,4.35
2023-02-27T08:24:09.598Z,4.47
2023-02-27T08:26:41.945Z,4.57
2023-02-27T08:29:16.100Z,4.68
2023-02-27T08:31:49.909Z,4.61
2023-02-27T08:34:22.106Z,4.59
2023-02-27T08:36:54.684Z,4.43
2023-02-27T08:39:28.731Z,4.31
2023-02-27T08:42:00.823Z,4.15
2023-02-27T08:44:33.567Z,4.07
2023-02-27T08:47:05.728Z,4.00
2023-02-27T08:49:37.771Z,3.97
2023-02-27T08:52:12.641Z,3.91
2023-02-27T08:54:48.748Z,3.87
2023-02-27T08:57:20.928Z,3.84
2023-02-27T08:59:53.223Z,3.88
2023-02-27T09:02:29.285Z,3.92
2023-02-27T09:05:01.981Z,3.96
2023-02-27T09:07:34.636Z,3.99
2023-02-27T09:10:10.865Z,4.15
2023-02-27T09:12:44.574Z,4.18
2023-02-27T09:15:16.878Z,4.19
2023-02-27T09:17:48.966Z,4.21
2023-02-27T09:20:21.059Z,4.20
2023-02-27T09:22:59.802Z,4.28
2023-02-27T09:25:36.293Z,4.36
2023-02-27T09:28:08.426Z,4.43
2023-02-27T09:30:40.721Z,4.50
2023-02-27T09:33:12.984Z,4.55
2023-02-27T09:35:45.217Z,4.51
2023-02-27T09:38:17.402Z,4.59
2023-02-27T09:40:52.967Z,4.61
2023-02-27T09:43:37.428Z,4.73
2023-02-27T09:46:18.158Z,4.91
2023-02-27T09:48:54.466Z,4.91
2023-02-27T09:51:28.479Z,4.93
2023-02-27T09:54:01.981Z,4.95
2023-02-27T09:56:49.567Z,5.02
2023-02-27T09:59:45.173Z,5.12
2023-02-27T10:06:32.695Z,5.06
2023-02-27T10:10:12.717Z,5.27
2023-02-27T10:13:33.828Z,5.41
2023-02-27T10:16:08.840Z,5.52
2023-02-27T10:18:54.400Z,5.61
2023-02-27T10:21:35.431Z,5.74
2023-02-27T10:24:27.646Z,5.86
2023-02-27T10:27:05.713Z,6.07
2023-02-27T10:29:42.184Z,6.25
2023-02-27T10:32:25.592Z,6.48
2023-02-27T10:35:21.512Z,7.12
2023-02-27T10:38:01.400Z,8.66
2023-02-27T10:40:36.662Z,11.73
2023-02-27T10:43:09.249Z,15.21
2023-02-27T10:45:42.351Z,17.70
2023-02-27T10:48:15.623Z,18.99
2023-02-27T10:50:52.450Z,20.66
2023-02-27T10:53:27.317Z,21.49
2023-02-27T10:56:08.045Z,20.94
2023-02-27T10:58:40.702Z,18.33
2023-02-27T11:01:13.586Z,15.79
2023-02-27T11:03:46.061Z,13.71
2023-02-27T11:06:26.968Z,12.16
2023-02-27T11:09:26.644Z,11.06
2023-02-27T11:12:11.268Z,10.10
2023-02-27T11:14:56.564Z,9.55
2023-02-27T11:17:34.483Z,9.17
2023-02-27T11:20:40.795Z,8.75
2023-02-27T11:23:24.592Z,8.65
2023-02-27T11:26:15.581Z,8.64
2023-02-27T11:29:19.010Z,8.71
2023-02-27T11:31:54.741Z,8.69
2023-02-27T11:34:38.046Z,8.94
2023-02-27T11:37:34.333Z,8.90
2023-02-27T11:40:09.603Z,8.97
2023-02-27T11:42:52.102Z,8.70
2023-02-27T11:46:04.587Z,8.64
2023-02-27T11:48:41.925Z,8.41
2023-02-27T11:51:44.653Z,8.50
2023-02-27T11:54:50.999Z,8.37
2023-02-27T11:57:39.036Z,8.31
2023-02-27T12:00:41.433Z,8.26
2023-02-27T12:03:35.828Z,8.18
2023-02-27T12:06:40.050Z,8.03
2023-02-27T12:09:32.704Z,7.98
2023-02-27T12:12:24.893Z,8.07
2023-02-27T12:15:26.587Z,7.99
2023-02-27T12:18:18.806Z,7.81
2023-02-27T12:21:16.129Z,7.68
2023-02-27T12:24:30.100Z,7.61
2023-02-27T12:27:21.224Z,7.59
2023-02-27T12:30:06.310Z,7.58
2023-02-27T12:32:50.516Z,7.53
2023-02-27T12:35:33.235Z,7.47
2023-02-27T12:38:07.427Z,7.56
2023-02-27T12:41:23.361Z,7.57
2023-02-27T12:44:14.205Z,7.57
2023-02-27T12:47:32.959Z,7.64
2023-02-27T12:50:22.110Z,7.77
2023-02-27T12:53:05.754Z,7.87
2023-02-27T12:55:55.311Z,8.13
2023-02-27T12:58:59.981Z,8.77
2023-02-27T13:01:48.408Z,9.34
2023-02-27T13:04:42.767Z,9.75
2023-02-27T13:07:37.562Z,9.84
2023-02-27T13:10:27.051Z,10.30
2023-02-27T13:13:11.635Z,10.60
2023-02-27T13:15:59.642Z,10.42
2023-02-27T13:18:45.819Z,10.39
2023-02-27T13:21:53.110Z,10.47
2023-02-27T13:24:28.523Z,10.61
2023-02-27T13:27:39.219Z,10.79
2023-02-27T13:30:27.487Z,10.77
2023-02-27T13:33:42.513Z,10.88
2023-02-27T13:36:39.584Z,10.85
2023-02-27T13:39:42.442Z,10.81
2023-02-27T13:42:26.910Z,10.64
2023-02-27T13:45:06.398Z,10.61
2023-02-27T13:47:50.060Z,10.53
2023-02-27T13:50:25.974Z,10.37
2023-02-27T13:53:10.850Z,9.96
2023-02-27T13:55:43.022Z,9.60
2023-02-27T13:58:18.505Z,9.25
2023-02-27T14:01:00.192Z,8.86
2023-02-27T14:03:32.846Z,8.58
2023-02-27T14:06:06.954Z,8.52
2023-02-27T14:08:57.561Z,8.36
2023-02-27T14:11:40.025Z,8.29
2023-02-27T14:14:44.417Z,8.48
2023-02-27T14:17:36.949Z,8.58
2023-02-27T14:20:32.079Z,8.50
2023-02-27T14:23:16.254Z,8.43
2023-02-27T14:26:00.230Z,8.35
2023-02-27T14:28:51.872Z,8.22
2023-02-27T14:31:33.108Z,8.09
2023-02-27T14:34:16.223Z,7.93
2023-02-27T14:36:54.194Z,7.73
2023-02-27T14:39:31.438Z,7.78
2023-02-27T14:42:47.174Z,7.73
2023-02-27T14:45:24.554Z,7.76
2023-02-27T14:47:58.357Z,7.78
2023-02-27T14:50:39.346Z,7.78
2023-02-27T14:53:27.268Z,7.83
2023-02-27T14:58:55.476Z,7.87
2023-02-27T15:01:36.076Z,7.71
2023-02-27T15:04:08.836Z,7.68
2023-02-27T15:06:45.475Z,7.63
2023-02-27T15:09:31.195Z,7.60
2023-02-27T15:12:05.043Z,7.67
2023-02-27T15:14:40.177Z,7.44
2023-02-27T15:17:23.015Z,7.40
2023-02-27T15:19:58.699Z,7.44
2023-02-27T15:22:39.519Z,7.43
2023-02-27T15:25:40.038Z,7.43
2023-02-27T15:28:26.416Z,7.40
2023-02-27T15:30:58.767Z,7.31
2023-02-27T15:33:33.020Z,7.29
2023-02-27T15:36:06.221Z,7.31
2023-02-27T15:38:41.116Z,7.35
2023-02-27T15:41:20.769Z,7.30
2023-02-27T15:43:53.914Z,7.16
2023-02-27T15:46:26.890Z,7.24
2023-02-27T15:48:59.850Z,7.36
2023-02-27T15:51:32.054Z,7.40
2023-02-27T15:54:04.687Z,7.41
2023-02-27T15:56:38.721Z,7.38
2023-02-27T15:59:16.212Z,7.29
2023-02-27T16:01:49.932Z,7.22
2023-02-27T16:04:26.640Z,7.10
2023-02-27T16:07:17.220Z,6.99
2023-02-27T16:10:06.794Z,6.95
2023-02-27T16:12:43.064Z,6.89
2023-02-27T16:15:32.961Z,6.88
2023-02-27T16:18:08.615Z,6.82
2023-02-27T16:20:55.798Z,6.81
2023-02-27T16:23:32.945Z,6.81
2023-02-27T16:26:29.423Z,6.75
2023-02-27T16:29:22.943Z,6.74
2023-02-27T16:31:57.692Z,6.71
2023-02-27T16:34:45.502Z,6.67
2023-02-27T16:37:41.217Z,6.58
2023-02-27T16:40:18.447Z,6.53
2023-02-27T16:42:53.848Z,6.55
2023-02-27T16:45:32.425Z,6.53
2023-02-27T16:48:05.885Z,6.56
2023-02-27T16:50:43.130Z,6.56
2023-02-27T16:53:18.033Z,6.58
2023-02-27T16:55:52.807Z,6.61
2023-02-27T16:58:25.980Z,6.59
2023-02-27T17:01:01.154Z,6.59
2023-02-27T17:03:33.442Z,6.62
2023-02-27T17:06:07.943Z,6.66
2023-02-27T17:08:43.044Z,6.69
2023-02-27T17:11:15.048Z,6.75
2023-02-27T17:14:00.437Z,6.74
2023-02-27T17:16:33.475Z,6.75
2023-02-27T17:19:08.942Z,6.77
2023-02-27T17:21:41.837Z,6.75
2023-02-27T17:24:14.942Z,6.73
2023-02-27T17:26:50.479Z,6.70
2023-02-27T17:29:27.831Z,6.70
2023-02-27T17:32:01.722Z,6.68
2023-02-27T17:34:34.009Z,6.64
2023-02-27T17:37:06.791Z,6.66
2023-02-27T17:39:39.569Z,6.58
2023-02-27T17:42:13.095Z,6.53
2023-02-27T17:44:46.644Z,6.47
2023-02-27T17:47:19.005Z,6.41
2023-02-27T17:49:51.028Z,6.38
2023-02-27T17:52:23.202Z,6.31
2023-02-27T17:54:55.869Z,6.27
2023-02-27T17:57:32.356Z,6.20
2023-02-27T18:00:15.392Z,6.06
2023-02-27T18:02:48.399Z,5.98
2023-02-27T18:05:22.082Z,5.92
2023-02-27T18:08:08.940Z,5.83
2023-02-27T18:16:46.360Z,5.62
2023-02-27T18:19:19.018Z,5.56
2023-02-27T18:21:54.664Z,5.51
2023-02-27T18:24:26.993Z,5.46
2023-02-27T18:26:59.019Z,5.40
2023-02-27T18:29:32.618Z,5.36
2023-02-27T18:32:05.941Z,5.31
2023-02-27T18:35:04.851Z,5.26
2023-02-27T18:37:37.056Z,5.23
2023-02-27T18:40:12.050Z,5.20
2023-02-27T18:42:47.838Z,5.16
2023-02-27T18:45:20.455Z,5.14
2023-02-27T18:47:53.127Z,5.10
2023-02-27T18:50:25.643Z,5.09
2023-02-27T18:53:01.060Z,5.07
2023-02-27T18:55:34.492Z,5.05
2023-02-27T18:58:07.062Z,5.04
2023-02-27T19:00:42.666Z,5.05
2023-02-27T19:03:16.619Z,5.03
2023-02-27T19:05:49.872Z,5.04
2023-02-27T19:08:25.131Z,5.03
2023-02-27T19:10:58.884Z,5.00
2023-02-27T19:13:31.392Z,4.99
2023-02-27T19:16:06.966Z,4.99
2023-02-27T19:18:42.266Z,5.01
2023-02-27T19:21:18.792Z,5.00
2023-02-27T19:24:04.575Z,5.05
2023-02-27T19:26:42.406Z,5.11
2023-02-27T19:29:15.185Z,5.17
2023-02-27T19:31:47.387Z,5.22
2023-02-27T19:34:19.541Z,5.26
2023-02-27T19:36:52.034Z,5.28
2023-02-27T19:39:23.982Z,5.33
2023-02-27T19:41:56.766Z,5.37
2023-02-27T19:44:28.791Z,5.40
2023-02-27T19:47:00.921Z,5.46
2023-02-27T19:49:32.984Z,5.51
2023-02-27T19:52:05.376Z,5.57
2023-02-27T19:54:41.104Z,5.58
2023-02-27T19:57:14.377Z,5.57
2023-02-27T19:59:46.878Z,5.59
2023-02-27T20:02:18.873Z,5.59
2023-02-27T20:04:50.937Z,5.55
2023-02-27T20:07:24.041Z,5.55
2023-02-27T20:09:57.366Z,5.58
2023-02-27T20:12:29.420Z,5.61
2023-02-27T20:15:10.328Z,5.61
2023-02-27T20:17:42.418Z,5.64
2023-02-27T20:20:14.605Z,5.66
2023-02-27T20:22:46.793Z,5.64
2023-02-27T20:25:19.214Z,5.64
2023-02-27T20:27:51.451Z,5.65
2023-02-27T20:30:27.448Z,5.69
2023-02-27T20:32:59.976Z,5.69
2023-02-27T20:35:34.425Z,5.69
2023-02-27T20:38:07.022Z,5.69
2023-02-27T20:40:39.006Z,5.70
2023-02-27T20:43:11.081Z,5.70
2023-02-27T20:45:43.198Z,5.70
2023-02-27T20:48:15.478Z,5.71
2023-02-27T20:50:47.872Z,5.68
2023-02-27T20:53:19.855Z,5.67
2023-02-27T20:55:51.841Z,5.71
2023-02-27T20:58:23.904Z,5.71
2023-02-27T21:00:55.959Z,5.74
2023-02-27T21:03:33.545Z,5.71
2023-02-27T21:06:10.541Z,5.70
2023-02-27T21:08:49.302Z,5.72
2023-02-27T21:11:29.786Z,5.72
2023-02-27T21:14:11.748Z,5.76
2023-02-27T21:16:43.782Z,5.78
2023-02-27T21:19:16.706Z,5.73
2023-02-27T21:21:48.914Z,5.78
2023-02-27T21:24:21.606Z,5.77
2023-02-27T21:26:53.667Z,5.78
2023-02-27T21:29:25.841Z,5.78
2023-02-27T21:31:57.838Z,5.76
2023-02-27T21:34:30.217Z,5.77
2023-02-27T21:37:05.941Z,5.78
2023-02-27T21:39:38.562Z,5.80
2023-02-27T21:42:10.528Z,5.80
2023-02-27T21:44:43.925Z,5.81
2023-02-27T21:47:15.938Z,5.82
2023-02-27T21:49:48.016Z,5.80
2023-02-27T21:52:20.199Z,5.76
2023-02-27T21:54:54.261Z,5.70
2023-02-27T21:57:26.270Z,5.66
2023-02-27T21:59:58.327Z,5.68
2023-02-27T22:02:30.466Z,5.68
2023-02-27T22:05:02.927Z,5.71
2023-02-27T22:07:35.111Z,5.74
2023-02-27T22:10:07.534Z,5.73
2023-02-27T22:12:39.538Z,5.74
2023-02-27T22:15:15.019Z,5.76
2023-02-27T22:17:48.042Z,5.74
2023-02-27T22:20:20.500Z,5.75
2023-02-27T22:22:52.565Z,5.76
2023-02-27T22:25:24.589Z,5.74
2023-02-27T22:27:56.566Z,5.76
2023-02-27T22:30:30.129Z,5.76
2023-02-27T22:33:02.315Z,5.78
2023-02-27T22:35:36.730Z,5.75
2023-02-27T22:38:08.784Z,5.74
2023-02-27T22:40:40.749Z,5.74
2023-02-27T22:43:12.757Z,5.73
2023-02-27T22:45:48.764Z,5.72
2023-02-27T22:48:22.692Z,5.74
2023-02-27T22:51:15.780Z,5.68
2023-02-27T22:54:16.774Z,5.63
2023-02-27T22:56:57.969Z,5.59
2023-02-27T22:59:30.107Z,5.60
2023-02-27T23:02:02.165Z,5.60
2023-02-27T23:04:34.361Z,5.61
2023-02-27T23:07:06.295Z,5.62
2023-02-27T23:09:40.722Z,5.67
2023-02-27T23:12:12.835Z,5.63
2023-02-27T23:14:44.846Z,5.63
2023-02-27T23:17:16.969Z,5.63
2023-02-27T23:19:49.904Z,5.61
2023-02-27T23:22:22.089Z,5.63
2023-02-27T23:24:54.169Z,5.68
2023-02-27T23:27:26.634Z,5.68
2023-02-27T23:30:05.220Z,5.71
2023-02-27T23:32:43.658Z,5.71
2023-02-27T23:35:17.337Z,5.69
2023-02-27T23:37:51.869Z,5.67
2023-02-27T23:40:27.152Z,5.70
2023-02-27T23:43:17.512Z,5.70
2023-02-27T23:45:51.049Z,5.59
2023-02-27T23:48:23.344Z,5.57
2023-02-27T23:50:59.622Z,5.60
2023-02-27T23:53:33.600Z,5.58
2023-02-27T23:56:24.529Z,5.54
2023-02-27T23:59:07.524Z,5.53
